Time;durP1;ratioP1;P1;durP2;ratioP2;P2;SDS_P1;SDS_P2;PMS_P1;PMS_P2;Temp;Humidity;BMP_temperature;BMP_pressure;BME280_temperature;BME280_humidity;BME280_pressure;Samples;Min_cycle;Max_cycle;Signal;HPM_P1;HPM_P2
2021/08/05 00:00:20;;;;;;;;;;;14.60;99.90;;;;;;5064269;28;19987;-56
2021/08/05 00:03:08;;;;;;;;;;;14.60;99.90;;;;;;5072512;28;19930;-56
2021/08/05 00:05:57;;;;;;;;;;;14.60;99.90;;;;;;5064855;28;19928;-56
2021/08/05 00:08:45;;;;;;;;;;;14.60;99.90;;;;;;5081021;28;20399;-56
2021/08/05 00:11:34;;;;;;;;;;;14.50;99.90;;;;;;5068888;28;20303;-56
2021/08/05 00:14:24;;;;;;;;;;;14.60;99.90;;;;;;5067038;28;19928;-56
2021/08/05 00:17:13;;;;;;;;;;;14.60;99.90;;;;;;5063654;28;19974;-58
2021/08/05 00:20:02;;;;;;;;;;;14.60;99.90;;;;;;5068897;28;20066;-56
2021/08/05 00:22:51;;;;;;;;;;;14.60;99.90;;;;;;5068349;28;19932;-56
2021/08/05 00:25:39;;;;;;;;;;;14.70;99.90;;;;;;5072234;28;19932;-56
2021/08/05 00:28:28;;;;;;;;;;;14.70;99.90;;;;;;5071156;28;20062;-56
2021/08/05 00:31:24;;;;;;;;;;;14.80;99.90;;;;;;5067130;28;19928;-57
2021/08/05 00:34:13;;;;;;;;;;;14.80;99.90;;;;;;5082415;28;19924;-57
2021/08/05 00:37:02;;;;;;;;;;;14.90;99.90;;;;;;5100337;28;19931;-56
2021/08/05 00:39:51;;;;;;;;;;;14.90;99.90;;;;;;5065082;28;19932;-57
2021/08/05 00:42:40;;;;;;;;;;;14.90;99.90;;;;;;5069062;28;19992;-59
2021/08/05 00:45:28;;;;;;;;;;;14.80;99.90;;;;;;5075095;28;19924;-56
2021/08/05 00:48:18;;;;;;;;;;;14.80;99.90;;;;;;5097432;28;19955;-56
2021/08/05 00:51:07;;;;;;;;;;;14.80;99.90;;;;;;5079591;28;19929;-56
2021/08/05 00:53:56;;;;;;;;;;;14.70;99.90;;;;;;5074213;28;20412;-56
2021/08/05 00:56:44;;;;;;;;;;;14.80;99.90;;;;;;5068926;28;19971;-56
2021/08/05 00:59:32;;;;;;;;;;;14.70;99.90;;;;;;5078629;28;19931;-56
2021/08/05 01:02:21;;;;;;;;;;;14.60;99.90;;;;;;5073242;28;19930;-56
2021/08/05 01:05:12;;;;;;;;;;;14.60;99.90;;;;;;5095203;28;20412;-56
2021/08/05 01:08:06;;;;;;;;;;;14.60;99.90;;;;;;5104716;27;19924;-57
2021/08/05 01:10:56;;;;;;;;;;;14.60;99.90;;;;;;5079131;28;19924;-56
2021/08/05 01:13:50;;;;;;;;;;;14.60;99.90;;;;;;5073656;28;20316;-56
2021/08/05 01:16:43;;;;;;;;;;;14.70;99.90;;;;;;5078864;28;19932;-56
2021/08/05 01:19:34;;;;;;;;;;;14.70;99.90;;;;;;5086016;28;20017;-56
2021/08/05 01:22:27;;;;;;;;;;;14.70;99.90;;;;;;5096037;27;19940;-57
2021/08/05 01:25:19;;;;;;;;;;;14.70;99.90;;;;;;5104010;27;19924;-56
2021/08/05 01:28:10;;;;;;;;;;;14.70;99.90;;;;;;5101747;28;19925;-56
2021/08/05 01:30:59;;;;;;;;;;;14.70;99.90;;;;;;5070159;28;19924;-56
2021/08/05 01:33:48;;;;;;;;;;;14.70;99.90;;;;;;5081992;28;19932;-56
2021/08/05 01:37:05;;;;;;;;;;;14.80;99.90;;;;;;5090445;28;20284;-56
2021/08/05 01:39:54;;;;;;;;;;;14.80;99.90;;;;;;5075610;28;20303;-56
2021/08/05 01:42:44;;;;;;;;;;;14.80;99.90;;;;;;5100458;28;20281;-58
2021/08/05 01:45:35;;;;;;;;;;;14.80;99.90;;;;;;5081263;28;20403;-56
2021/08/05 01:48:23;;;;;;;;;;;14.80;99.90;;;;;;5081249;28;20382;-56
2021/08/05 01:51:13;;;;;;;;;;;14.80;99.90;;;;;;5085434;28;19948;-57
2021/08/05 01:54:02;;;;;;;;;;;14.80;99.90;;;;;;5105013;28;19924;-56
2021/08/05 01:56:50;;;;;;;;;;;14.80;99.90;;;;;;5072958;28;20030;-56
2021/08/05 01:59:38;;;;;;;;;;;14.80;99.90;;;;;;5088635;28;20472;-56
2021/08/05 02:02:29;;;;;;;;;;;14.80;99.90;;;;;;5081392;28;19928;-57
2021/08/05 02:05:20;;;;;;;;;;;14.80;99.90;;;;;;5070409;28;19928;-56
2021/08/05 02:08:09;;;;;;;;;;;14.90;99.90;;;;;;5076850;28;20491;-56
2021/08/05 02:10:59;;;;;;;;;;;14.90;99.90;;;;;;5065158;28;19932;-56
2021/08/05 02:13:49;;;;;;;;;;;15.00;99.90;;;;;;5090701;28;20296;-56
2021/08/05 02:16:41;;;;;;;;;;;14.90;99.90;;;;;;5075116;28;20029;-56
2021/08/05 02:19:31;;;;;;;;;;;14.90;99.90;;;;;;5111282;28;19930;-56
2021/08/05 02:22:20;;;;;;;;;;;15.00;99.90;;;;;;5094068;28;19924;-56
2021/08/05 02:25:10;;;;;;;;;;;15.00;99.90;;;;;;5086304;28;19932;-56
2021/08/05 02:31:13;;;;;;;;;;;14.90;99.90;;;;;;5068211;28;19932;-56
2021/08/05 02:34:03;;;;;;;;;;;14.90;99.90;;;;;;5082316;28;20380;-56
2021/08/05 02:36:53;;;;;;;;;;;14.90;99.90;;;;;;5094019;28;20059;-57
2021/08/05 02:39:42;;;;;;;;;;;15.00;99.90;;;;;;5097529;28;19924;-56
2021/08/05 02:42:31;;;;;;;;;;;14.90;99.90;;;;;;5076604;28;20040;-56
2021/08/05 02:45:20;;;;;;;;;;;14.90;99.90;;;;;;5075244;28;19924;-56
2021/08/05 02:48:12;;;;;;;;;;;15.00;99.90;;;;;;5090951;28;20028;-57
2021/08/05 02:51:02;;;;;;;;;;;15.00;99.90;;;;;;5089658;28;20274;-57
2021/08/05 02:53:52;;;;;;;;;;;15.00;99.90;;;;;;5073552;28;19976;-56
2021/08/05 02:56:41;;;;;;;;;;;15.00;99.90;;;;;;5091502;28;19946;-57
2021/08/05 02:59:29;;;;;;;;;;;15.00;99.90;;;;;;5068121;28;19935;-56
2021/08/05 03:02:18;;;;;;;;;;;15.00;99.90;;;;;;5077912;28;20289;-56
2021/08/05 03:05:09;;;;;;;;;;;15.00;99.90;;;;;;5068114;28;20695;-57
2021/08/05 03:07:58;;;;;;;;;;;15.00;99.90;;;;;;5074688;28;20100;-57
2021/08/05 03:10:48;;;;;;;;;;;14.90;99.90;;;;;;5073461;28;19924;-58
2021/08/05 03:13:36;;;;;;;;;;;15.00;99.90;;;;;;5069931;28;20046;-56
2021/08/05 03:16:26;;;;;;;;;;;14.90;99.90;;;;;;5061949;28;19924;-56
2021/08/05 03:19:14;;;;;;;;;;;14.90;99.90;;;;;;5070702;28;20356;-56
2021/08/05 03:22:04;;;;;;;;;;;14.80;99.90;;;;;;5070559;28;20389;-56
2021/08/05 03:24:52;;;;;;;;;;;14.80;99.90;;;;;;5072223;28;19924;-58
2021/08/05 03:27:42;;;;;;;;;;;14.80;99.90;;;;;;5070972;28;19978;-56
2021/08/05 03:30:32;;;;;;;;;;;14.90;99.90;;;;;;5063871;28;20011;-57
2021/08/05 03:33:20;;;;;;;;;;;14.90;99.90;;;;;;5081435;28;19967;-57
2021/08/05 03:36:08;;;;;;;;;;;14.80;99.90;;;;;;5073661;28;19973;-56
2021/08/05 03:38:57;;;;;;;;;;;14.90;99.90;;;;;;5074550;28;19928;-56
2021/08/05 03:41:46;;;;;;;;;;;14.90;99.90;;;;;;5077934;28;20002;-57
2021/08/05 03:44:35;;;;;;;;;;;14.90;99.90;;;;;;5080596;28;20372;-56
2021/08/05 03:47:24;;;;;;;;;;;14.90;99.90;;;;;;5072468;28;20013;-57
2021/08/05 03:50:13;;;;;;;;;;;14.90;99.90;;;;;;5081201;28;20015;-57
2021/08/05 03:53:01;;;;;;;;;;;14.90;99.90;;;;;;5075714;28;19924;-56
2021/08/05 03:55:51;;;;;;;;;;;14.90;99.90;;;;;;5081223;28;19924;-57
2021/08/05 03:58:39;;;;;;;;;;;14.90;99.90;;;;;;5080469;28;19971;-56
2021/08/05 04:01:30;;;;;;;;;;;14.90;99.90;;;;;;5067214;28;20427;-56
2021/08/05 04:04:19;;;;;;;;;;;14.90;99.90;;;;;;5078230;28;20057;-56
2021/08/05 04:07:08;;;;;;;;;;;14.90;99.90;;;;;;5076245;28;19924;-59
2021/08/05 04:09:57;;;;;;;;;;;14.80;99.90;;;;;;5075700;28;19928;-56
2021/08/05 04:12:46;;;;;;;;;;;14.90;99.90;;;;;;5078710;28;19947;-56
2021/08/05 04:15:35;;;;;;;;;;;14.80;99.90;;;;;;5064374;28;20041;-56
2021/08/05 04:18:25;;;;;;;;;;;14.90;99.90;;;;;;5078627;28;19974;-56
2021/08/05 04:21:13;;;;;;;;;;;14.90;99.90;;;;;;5077742;28;19924;-56
2021/08/05 04:24:01;;;;;;;;;;;14.90;99.90;;;;;;5077143;28;19931;-56
2021/08/05 04:26:53;;;;;;;;;;;14.90;99.90;;;;;;5075897;28;19924;-56
2021/08/05 04:29:41;;;;;;;;;;;14.90;99.90;;;;;;5082870;28;20283;-56
2021/08/05 04:32:30;;;;;;;;;;;15.00;99.90;;;;;;5079032;28;20013;-56
2021/08/05 04:35:20;;;;;;;;;;;15.00;99.90;;;;;;5083074;28;19929;-57
2021/08/05 04:38:10;;;;;;;;;;;15.00;99.90;;;;;;5087126;28;19924;-57
2021/08/05 04:40:59;;;;;;;;;;;15.10;99.90;;;;;;5073050;28;20427;-56
2021/08/05 04:43:47;;;;;;;;;;;15.00;99.90;;;;;;5084755;28;19928;-56
2021/08/05 04:49:48;;;;;;;;;;;15.00;99.90;;;;;;5073417;28;19924;-56
2021/08/05 04:52:38;;;;;;;;;;;15.00;99.90;;;;;;5074131;28;20392;-56
2021/08/05 04:55:26;;;;;;;;;;;15.10;99.90;;;;;;5077354;28;19925;-57
2021/08/05 04:58:15;;;;;;;;;;;15.10;99.90;;;;;;5086798;28;19924;-56
2021/08/05 05:01:04;;;;;;;;;;;15.10;99.90;;;;;;5073883;28;19930;-56
2021/08/05 05:03:53;;;;;;;;;;;15.10;99.90;;;;;;5082499;28;19931;-57
2021/08/05 05:06:42;;;;;;;;;;;15.10;99.90;;;;;;5082335;28;19967;-56
2021/08/05 05:09:32;;;;;;;;;;;15.10;99.90;;;;;;5072355;28;19983;-57
2021/08/05 05:15:58;;;;;;;;;;;15.20;99.90;;;;;;5072471;28;19956;-56
2021/08/05 05:18:47;;;;;;;;;;;15.10;99.90;;;;;;5073085;28;19928;-56
2021/08/05 05:21:40;;;;;;;;;;;15.20;99.90;;;;;;5074335;28;19980;-56
2021/08/05 05:24:29;;;;;;;;;;;15.20;99.90;;;;;;5071774;28;19924;-56
2021/08/05 05:27:19;;;;;;;;;;;15.20;99.90;;;;;;5073017;28;19928;-56
2021/08/05 05:30:09;;;;;;;;;;;15.20;99.90;;;;;;5066249;28;20000;-56
2021/08/05 05:33:00;;;;;;;;;;;15.20;99.90;;;;;;5078880;28;19924;-56
2021/08/05 05:35:48;;;;;;;;;;;15.20;99.90;;;;;;5072170;28;20284;-56
2021/08/05 05:38:43;;;;;;;;;;;15.20;99.90;;;;;;5072687;28;20045;-56
2021/08/05 05:41:32;;;;;;;;;;;15.30;99.90;;;;;;5077043;28;20395;-56
2021/08/05 05:44:21;;;;;;;;;;;15.30;99.90;;;;;;5074281;28;20304;-56
2021/08/05 05:47:10;;;;;;;;;;;15.40;99.90;;;;;;5066873;28;19928;-57
2021/08/05 05:49:59;;;;;;;;;;;15.40;99.90;;;;;;5070755;28;19972;-57
2021/08/05 05:52:48;;;;;;;;;;;15.50;99.90;;;;;;5075066;28;19951;-56
2021/08/05 05:55:39;;;;;;;;;;;15.50;99.90;;;;;;5076274;28;19954;-57
2021/08/05 05:58:28;;;;;;;;;;;15.50;99.90;;;;;;5076703;28;19924;-57
2021/08/05 06:01:19;;;;;;;;;;;15.50;99.90;;;;;;5063689;28;19924;-56
2021/08/05 06:04:10;;;;;;;;;;;15.50;99.90;;;;;;5077140;28;19925;-56
2021/08/05 06:06:59;;;;;;;;;;;15.60;99.90;;;;;;5075885;28;19932;-56
2021/08/05 06:13:00;;;;;;;;;;;15.70;99.90;;;;;;5072777;28;20031;-56
2021/08/05 06:15:49;;;;;;;;;;;15.90;99.90;;;;;;5061172;28;19925;-56
2021/08/05 06:18:38;;;;;;;;;;;15.90;99.90;;;;;;5064885;28;19939;-57
2021/08/05 06:21:29;;;;;;;;;;;16.00;99.90;;;;;;5072246;28;19924;-56
2021/08/05 06:24:18;;;;;;;;;;;16.00;99.90;;;;;;5072801;28;19929;-57
2021/08/05 06:27:32;;;;;;;;;;;16.10;99.90;;;;;;5067477;28;20078;-56
2021/08/05 06:30:21;;;;;;;;;;;16.20;99.90;;;;;;5062751;28;19950;-56
2021/08/05 06:33:10;;;;;;;;;;;16.20;99.90;;;;;;5072128;28;19925;-56
2021/08/05 06:36:00;;;;;;;;;;;16.10;99.90;;;;;;5077139;28;20349;-58
2021/08/05 06:38:49;;;;;;;;;;;16.20;99.90;;;;;;5077171;28;19928;-56
2021/08/05 06:41:37;;;;;;;;;;;16.20;99.90;;;;;;5076837;28;19932;-56
2021/08/05 06:44:26;;;;;;;;;;;16.20;99.90;;;;;;5077037;28;19924;-56
2021/08/05 06:47:17;;;;;;;;;;;16.20;99.90;;;;;;5070605;28;20280;-57
2021/08/05 06:50:05;;;;;;;;;;;16.10;99.90;;;;;;5070895;28;19928;-56
2021/08/05 06:52:55;;;;;;;;;;;16.10;99.90;;;;;;5078831;28;19932;-57
2021/08/05 06:55:43;;;;;;;;;;;16.10;99.90;;;;;;5080239;28;19924;-57
2021/08/05 06:58:32;;;;;;;;;;;16.10;99.90;;;;;;5075432;28;20085;-56
2021/08/05 07:01:20;;;;;;;;;;;16.10;99.90;;;;;;5066856;28;19925;-57
2021/08/05 07:04:11;;;;;;;;;;;16.10;99.90;;;;;;5072069;28;19930;-56
2021/08/05 07:06:59;;;;;;;;;;;16.10;99.90;;;;;;5078623;28;20315;-56
2021/08/05 07:10:13;;;;;;;;;;;16.10;99.90;;;;;;5073337;28;20371;-56
2021/08/05 07:13:05;;;;;;;;;;;16.20;99.90;;;;;;5072688;28;20014;-57
2021/08/05 07:15:54;;;;;;;;;;;16.20;99.90;;;;;;5065971;28;20007;-57
2021/08/05 07:18:43;;;;;;;;;;;16.20;99.90;;;;;;5080506;28;19928;-57
2021/08/05 07:21:31;;;;;;;;;;;16.20;99.90;;;;;;5073777;28;19924;-58
2021/08/05 07:24:20;;;;;;;;;;;16.30;99.90;;;;;;5076889;28;19924;-56
2021/08/05 07:30:23;;;;;;;;;;;16.40;99.90;;;;;;5071265;28;19959;-56
2021/08/05 07:33:11;;;;;;;;;;;16.60;99.90;;;;;;5089458;28;20280;-57
2021/08/05 07:36:00;;;;;;;;;;;16.70;99.90;;;;;;5079764;28;20905;-56
2021/08/05 07:38:49;;;;;;;;;;;16.80;99.90;;;;;;5079213;28;19935;-56
2021/08/05 07:41:37;;;;;;;;;;;16.80;99.90;;;;;;5075999;28;19924;-57
2021/08/05 07:44:26;;;;;;;;;;;16.80;99.90;;;;;;5083284;28;19959;-58
2021/08/05 07:47:18;;;;;;;;;;;16.90;99.90;;;;;;5076599;28;20050;-56
2021/08/05 07:50:09;;;;;;;;;;;16.90;99.90;;;;;;5086511;28;19924;-56
2021/08/05 07:52:57;;;;;;;;;;;16.90;99.90;;;;;;5077355;28;19924;-56
2021/08/05 07:55:46;;;;;;;;;;;17.00;99.90;;;;;;5088565;28;20276;-56
2021/08/05 07:58:35;;;;;;;;;;;17.00;99.90;;;;;;5089084;28;20419;-56
2021/08/05 08:01:24;;;;;;;;;;;17.20;99.90;;;;;;5067915;28;20322;-56
2021/08/05 08:04:15;;;;;;;;;;;17.20;99.90;;;;;;5078817;28;19993;-56
2021/08/05 08:07:04;;;;;;;;;;;17.30;99.90;;;;;;5087569;28;19939;-56
2021/08/05 08:09:56;;;;;;;;;;;17.40;99.90;;;;;;5091503;28;19977;-56
2021/08/05 08:12:45;;;;;;;;;;;17.40;99.90;;;;;;5080539;28;19931;-56
2021/08/05 08:15:33;;;;;;;;;;;17.60;99.90;;;;;;5081640;28;19924;-56
2021/08/05 08:18:22;;;;;;;;;;;17.60;99.90;;;;;;5088328;28;20421;-56
2021/08/05 08:21:15;;;;;;;;;;;17.70;99.90;;;;;;5087007;28;19958;-57
2021/08/05 08:30:29;;;;;;;;;;;17.90;99.90;;;;;;5077157;28;20018;-56
2021/08/05 08:33:18;;;;;;;;;;;17.90;99.90;;;;;;5079620;28;19928;-56
2021/08/05 08:36:07;;;;;;;;;;;18.00;99.90;;;;;;5081232;28;19995;-56
2021/08/05 08:38:58;;;;;;;;;;;18.10;99.90;;;;;;5077816;28;20005;-57
2021/08/05 08:41:47;;;;;;;;;;;18.10;99.90;;;;;;5083782;28;19966;-56
2021/08/05 08:44:35;;;;;;;;;;;18.40;99.90;;;;;;5072862;28;19924;-57
2021/08/05 08:47:24;;;;;;;;;;;18.30;99.90;;;;;;5077762;28;19935;-56
2021/08/05 08:50:14;;;;;;;;;;;18.60;99.90;;;;;;5086925;28;19928;-56
2021/08/05 08:53:05;;;;;;;;;;;18.80;99.90;;;;;;5083354;28;19924;-56
2021/08/05 08:55:56;;;;;;;;;;;19.20;99.90;;;;;;5086982;28;20379;-56
2021/08/05 08:58:44;;;;;;;;;;;20.60;99.90;;;;;;5081982;28;19931;-56
2021/08/05 09:01:39;;;;;;;;;;;23.00;99.90;;;;;;5074167;28;19956;-57
2021/08/05 09:04:29;;;;;;;;;;;25.00;99.90;;;;;;5080033;28;19990;-56
2021/08/05 09:07:18;;;;;;;;;;;26.20;99.00;;;;;;5082233;28;20657;-59
2021/08/05 09:10:07;;;;;;;;;;;26.80;95.70;;;;;;5080223;28;19924;-56
2021/08/05 09:13:00;;;;;;;;;;;26.80;95.20;;;;;;5084065;28;20057;-56
2021/08/05 09:15:49;;;;;;;;;;;25.40;96.70;;;;;;5068651;28;19962;-56
2021/08/05 09:18:40;;;;;;;;;;;23.90;99.90;;;;;;5092603;28;19949;-56
2021/08/05 09:21:29;;;;;;;;;;;22.80;99.90;;;;;;5078688;28;19942;-57
2021/08/05 09:24:17;;;;;;;;;;;22.90;99.90;;;;;;5090996;28;19988;-56
2021/08/05 09:27:07;;;;;;;;;;;24.80;99.90;;;;;;5089167;28;19924;-56
2021/08/05 09:29:58;;;;;;;;;;;24.80;99.90;;;;;;5083725;28;20390;-58
2021/08/05 09:32:47;;;;;;;;;;;25.20;99.90;;;;;;5085283;28;20463;-56
2021/08/05 09:35:37;;;;;;;;;;;22.70;99.60;;;;;;5074869;28;19928;-56
2021/08/05 09:38:27;;;;;;;;;;;21.80;99.90;;;;;;5085436;28;19927;-56
2021/08/05 09:41:15;;;;;;;;;;;21.30;99.90;;;;;;5076965;28;19924;-58
2021/08/05 09:44:04;;;;;;;;;;;21.60;99.90;;;;;;5085915;28;20356;-56
2021/08/05 09:47:07;;;;;;;;;;;21.20;99.90;;;;;;5082894;28;19931;-56
2021/08/05 09:49:56;;;;;;;;;;;21.40;99.90;;;;;;5086613;28;19924;-56
2021/08/05 09:52:47;;;;;;;;;;;22.00;99.90;;;;;;5091762;28;19935;-56
2021/08/05 09:55:36;;;;;;;;;;;22.90;99.90;;;;;;5082637;28;19924;-56
2021/08/05 09:58:26;;;;;;;;;;;22.10;99.90;;;;;;5072676;28;19924;-56
2021/08/05 10:01:36;;;;;;;;;;;22.60;99.90;;;;;;5078019;28;20007;-56
2021/08/05 10:04:28;;;;;;;;;;;22.90;99.90;;;;;;5075224;28;19936;-56
2021/08/05 10:07:17;;;;;;;;;;;23.70;99.90;;;;;;5082336;28;20323;-56
2021/08/05 10:10:06;;;;;;;;;;;23.40;99.90;;;;;;5079348;28;19924;-56
2021/08/05 10:12:56;;;;;;;;;;;23.50;99.90;;;;;;5087851;28;20273;-56
2021/08/05 10:15:49;;;;;;;;;;;23.80;99.90;;;;;;5074475;28;20512;-56
2021/08/05 10:18:38;;;;;;;;;;;24.30;99.90;;;;;;5088800;28;20217;-56
2021/08/05 10:21:30;;;;;;;;;;;24.00;99.20;;;;;;5075959;28;20409;-56
2021/08/05 10:24:19;;;;;;;;;;;22.80;99.90;;;;;;5084742;28;19928;-56
2021/08/05 10:27:09;;;;;;;;;;;21.30;99.90;;;;;;5082857;28;20434;-56
2021/08/05 10:29:58;;;;;;;;;;;20.70;99.90;;;;;;5082426;28;19947;-56
2021/08/05 10:32:48;;;;;;;;;;;20.40;99.90;;;;;;5089040;28;19994;-56
2021/08/05 10:35:37;;;;;;;;;;;20.40;99.90;;;;;;5079705;28;19946;-55
2021/08/05 10:38:29;;;;;;;;;;;20.50;99.90;;;;;;5086107;28;19951;-56
2021/08/05 10:41:18;;;;;;;;;;;20.50;99.90;;;;;;5082628;28;20334;-56
2021/08/05 10:44:08;;;;;;;;;;;20.60;99.90;;;;;;5084701;28;20017;-55
2021/08/05 10:46:58;;;;;;;;;;;20.70;99.90;;;;;;5083789;28;19924;-55
2021/08/05 10:49:48;;;;;;;;;;;20.60;99.90;;;;;;5090861;28;19990;-56
2021/08/05 10:52:38;;;;;;;;;;;20.70;99.90;;;;;;5088501;28;19924;-57
2021/08/05 10:55:29;;;;;;;;;;;21.00;99.90;;;;;;5086695;28;20272;-56
2021/08/05 10:58:19;;;;;;;;;;;21.10;99.90;;;;;;5085220;28;19928;-56
2021/08/05 11:01:08;;;;;;;;;;;21.50;99.90;;;;;;5066632;28;23089;-56
2021/08/05 11:03:58;;;;;;;;;;;21.80;99.90;;;;;;5090565;28;19924;-56
2021/08/05 11:06:46;;;;;;;;;;;22.20;99.90;;;;;;5082928;28;19924;-55
2021/08/05 11:09:35;;;;;;;;;;;21.90;99.90;;;;;;5085970;28;19924;-57
2021/08/05 11:12:40;;;;;;;;;;;22.10;99.90;;;;;;5075171;28;19929;-56
2021/08/05 11:15:46;;;;;;;;;;;21.50;99.90;;;;;;5076805;28;19924;-56
2021/08/05 11:18:35;;;;;;;;;;;21.10;99.90;;;;;;5076244;28;19924;-56
2021/08/05 11:21:27;;;;;;;;;;;20.90;99.90;;;;;;5076136;28;19951;-56
2021/08/05 11:24:30;;;;;;;;;;;21.30;99.90;;;;;;5083837;28;19924;-58
2021/08/05 11:27:20;;;;;;;;;;;21.60;99.90;;;;;;5082788;28;19994;-56
2021/08/05 11:30:27;;;;;;;;;;;22.10;99.90;;;;;;5076577;28;20383;-56
2021/08/05 11:33:34;;;;;;;;;;;21.80;99.90;;;;;;5084165;28;19947;-56
2021/08/05 11:36:25;;;;;;;;;;;22.10;99.90;;;;;;5081381;28;19927;-56
2021/08/05 11:39:16;;;;;;;;;;;21.70;99.90;;;;;;5086280;28;19943;-56
2021/08/05 11:42:18;;;;;;;;;;;21.30;99.90;;;;;;5084838;28;20021;-58
2021/08/05 11:45:08;;;;;;;;;;;20.90;99.90;;;;;;5073906;28;20397;-56
2021/08/05 11:47:57;;;;;;;;;;;20.90;99.90;;;;;;5089821;28;19958;-55
2021/08/05 11:50:47;;;;;;;;;;;20.90;99.90;;;;;;5088648;28;19944;-56
2021/08/05 11:53:42;;;;;;;;;;;20.80;99.90;;;;;;5086432;28;19969;-55
2021/08/05 11:56:35;;;;;;;;;;;20.80;99.90;;;;;;5078453;28;19980;-56
2021/08/05 11:59:32;;;;;;;;;;;20.80;99.90;;;;;;5079073;28;19924;-57
2021/08/05 12:02:21;;;;;;;;;;;20.70;99.90;;;;;;5081226;28;19924;-57
2021/08/05 12:05:11;;;;;;;;;;;20.40;99.90;;;;;;5091236;28;20384;-55
2021/08/05 12:07:59;;;;;;;;;;;20.60;99.90;;;;;;5094597;28;20364;-56
2021/08/05 12:10:50;;;;;;;;;;;21.00;99.90;;;;;;5099482;28;19928;-56
2021/08/05 12:13:41;;;;;;;;;;;21.00;99.90;;;;;;5095973;28;19924;-55
2021/08/05 12:16:30;;;;;;;;;;;21.10;99.90;;;;;;5067973;28;20014;-56
2021/08/05 12:19:19;;;;;;;;;;;21.20;99.90;;;;;;5081665;28;19928;-56
2021/08/05 12:22:07;;;;;;;;;;;21.40;99.90;;;;;;5072973;28;20284;-55
2021/08/05 12:24:59;;;;;;;;;;;21.90;99.90;;;;;;5088948;28;19939;-55
2021/08/05 12:31:17;;;;;;;;;;;21.80;99.90;;;;;;5071982;28;19924;-56
2021/08/05 12:34:10;;;;;;;;;;;22.10;99.90;;;;;;5081664;28;19927;-58
2021/08/05 12:37:16;;;;;;;;;;;22.30;99.90;;;;;;5082764;28;20341;-55
2021/08/05 12:40:09;;;;;;;;;;;22.20;99.90;;;;;;5085934;28;19962;-56
2021/08/05 12:43:01;;;;;;;;;;;22.20;99.90;;;;;;5085061;28;20044;-58
2021/08/05 12:45:50;;;;;;;;;;;22.10;99.90;;;;;;5081486;28;20001;-56
2021/08/05 12:48:40;;;;;;;;;;;22.20;99.90;;;;;;5079378;28;19938;-56
2021/08/05 12:51:30;;;;;;;;;;;22.10;99.90;;;;;;5085884;28;20023;-56
2021/08/05 12:54:19;;;;;;;;;;;21.20;99.90;;;;;;5078029;28;20989;-55
2021/08/05 12:57:14;;;;;;;;;;;21.30;99.90;;;;;;5085997;28;19939;-57
2021/08/05 13:00:06;;;;;;;;;;;21.80;99.90;;;;;;5088089;28;19965;-55
2021/08/05 13:02:55;;;;;;;;;;;21.80;99.90;;;;;;5079725;28;20398;-56
2021/08/05 13:05:55;;;;;;;;;;;22.10;99.90;;;;;;5087137;28;19942;-57
2021/08/05 13:08:44;;;;;;;;;;;22.30;99.90;;;;;;5088995;28;19939;-56
2021/08/05 13:11:36;;;;;;;;;;;22.40;99.90;;;;;;5086132;28;20017;-55
2021/08/05 13:14:29;;;;;;;;;;;22.50;99.90;;;;;;5083353;28;20029;-56
2021/08/05 13:17:20;;;;;;;;;;;22.50;99.70;;;;;;5079073;28;20516;-56
2021/08/05 13:20:10;;;;;;;;;;;22.40;99.40;;;;;;5086523;28;20429;-56
2021/08/05 13:22:59;;;;;;;;;;;21.90;99.40;;;;;;5079738;28;19938;-56
2021/08/05 13:25:48;;;;;;;;;;;22.20;99.70;;;;;;5086362;28;19959;-56
2021/08/05 13:28:40;;;;;;;;;;;22.30;99.50;;;;;;5079936;28;20029;-56
2021/08/05 13:31:31;;;;;;;;;;;22.10;98.90;;;;;;5076888;28;20011;-55
2021/08/05 13:34:21;;;;;;;;;;;22.00;98.90;;;;;;5083207;28;20244;-56
2021/08/05 13:37:23;;;;;;;;;;;21.80;99.30;;;;;;5085771;28;19935;-56
2021/08/05 13:40:21;;;;;;;;;;;21.80;99.90;;;;;;5082016;28;20464;-58
2021/08/05 13:43:12;;;;;;;;;;;21.80;99.90;;;;;;5101204;28;19938;-56
2021/08/05 13:46:00;;;;;;;;;;;22.10;99.60;;;;;;5090506;28;19959;-56
2021/08/05 13:48:52;;;;;;;;;;;22.30;99.10;;;;;;5083148;28;19939;-56
2021/08/05 13:51:42;;;;;;;;;;;22.50;98.90;;;;;;5082594;28;19944;-56
2021/08/05 13:54:30;;;;;;;;;;;22.80;99.10;;;;;;5083459;28;19943;-56
2021/08/05 13:57:19;;;;;;;;;;;22.80;98.70;;;;;;5086382;28;19953;-56
2021/08/05 14:00:09;;;;;;;;;;;22.80;98.50;;;;;;5075793;28;19966;-56
2021/08/05 14:03:00;;;;;;;;;;;23.10;98.80;;;;;;5077864;28;20318;-56
2021/08/05 14:05:49;;;;;;;;;;;23.20;98.20;;;;;;5090703;28;19935;-57
2021/08/05 14:08:39;;;;;;;;;;;23.20;98.30;;;;;;5090114;28;20456;-56
2021/08/05 14:11:28;;;;;;;;;;;23.30;98.40;;;;;;5076759;28;19961;-56
2021/08/05 14:14:17;;;;;;;;;;;22.80;98.80;;;;;;5083624;28;19943;-56
2021/08/05 14:17:06;;;;;;;;;;;22.90;99.40;;;;;;5076315;28;19932;-56
2021/08/05 14:19:55;;;;;;;;;;;23.00;99.40;;;;;;5083920;28;20070;-55
2021/08/05 14:22:44;;;;;;;;;;;22.90;99.00;;;;;;5079005;28;19924;-56
2021/08/05 14:25:35;;;;;;;;;;;22.80;99.00;;;;;;5080573;28;20257;-55
2021/08/05 14:28:48;;;;;;;;;;;23.20;99.40;;;;;;5083494;28;19924;-55
2021/08/05 14:31:37;;;;;;;;;;;23.30;98.70;;;;;;5080325;28;20011;-56
2021/08/05 14:34:26;;;;;;;;;;;23.50;99.00;;;;;;5080510;28;19939;-56
2021/08/05 14:37:14;;;;;;;;;;;23.70;98.10;;;;;;5087425;28;19959;-56
2021/08/05 14:40:03;;;;;;;;;;;23.20;97.00;;;;;;5078393;28;19978;-56
2021/08/05 14:42:54;;;;;;;;;;;23.00;97.50;;;;;;5091162;28;19924;-56
2021/08/05 14:45:43;;;;;;;;;;;23.40;97.90;;;;;;5073458;28;19925;-56
2021/08/05 14:48:31;;;;;;;;;;;23.20;97.40;;;;;;5081379;28;19924;-56
2021/08/05 14:51:20;;;;;;;;;;;23.30;98.20;;;;;;5085843;28;20324;-55
2021/08/05 14:54:08;;;;;;;;;;;22.70;97.70;;;;;;5083186;28;19928;-56
2021/08/05 14:56:57;;;;;;;;;;;22.80;98.20;;;;;;5087639;28;20387;-56
2021/08/05 14:59:47;;;;;;;;;;;22.80;98.10;;;;;;5077155;28;20334;-56
2021/08/05 15:02:36;;;;;;;;;;;22.70;98.40;;;;;;5084021;28;20239;-56
2021/08/05 15:05:30;;;;;;;;;;;22.50;98.60;;;;;;5075226;28;21439;-59
2021/08/05 15:08:18;;;;;;;;;;;22.30;99.00;;;;;;5076528;28;20360;-56
2021/08/05 15:11:07;;;;;;;;;;;22.30;99.30;;;;;;5074081;28;19971;-56
2021/08/05 15:13:55;;;;;;;;;;;22.50;99.30;;;;;;5076920;28;20465;-56
2021/08/05 15:16:46;;;;;;;;;;;22.60;99.40;;;;;;5078285;28;20372;-56
2021/08/05 15:19:36;;;;;;;;;;;22.80;99.10;;;;;;5084575;28;19928;-56
2021/08/05 15:22:24;;;;;;;;;;;23.10;98.30;;;;;;5083170;28;19924;-56
2021/08/05 15:25:17;;;;;;;;;;;23.00;98.40;;;;;;5079367;28;19925;-56
2021/08/05 15:28:09;;;;;;;;;;;22.70;98.30;;;;;;5069133;28;20067;-56
2021/08/05 15:30:57;;;;;;;;;;;22.40;98.50;;;;;;5078864;28;19967;-56
2021/08/05 15:33:47;;;;;;;;;;;22.30;98.90;;;;;;5090785;28;19928;-56
2021/08/05 15:36:35;;;;;;;;;;;22.20;99.40;;;;;;5100723;28;19994;-56
2021/08/05 15:39:24;;;;;;;;;;;22.20;99.90;;;;;;5090448;28;19994;-56
2021/08/05 15:42:12;;;;;;;;;;;22.20;99.50;;;;;;5089308;28;19963;-56
2021/08/05 15:45:02;;;;;;;;;;;22.40;98.90;;;;;;5088719;28;19947;-56
2021/08/05 15:47:51;;;;;;;;;;;22.60;98.40;;;;;;5083967;28;19960;-56
2021/08/05 15:50:41;;;;;;;;;;;22.50;98.80;;;;;;5085223;28;19925;-56
2021/08/05 15:53:31;;;;;;;;;;;22.70;98.50;;;;;;5096912;28;19924;-56
2021/08/05 15:56:19;;;;;;;;;;;22.70;98.60;;;;;;5080242;28;20156;-55
2021/08/05 15:59:12;;;;;;;;;;;22.80;98.60;;;;;;5075504;28;19942;-56
2021/08/05 16:02:01;;;;;;;;;;;22.80;98.80;;;;;;5053905;28;20029;-55
2021/08/05 16:04:50;;;;;;;;;;;22.90;98.70;;;;;;5052806;28;20033;-56
2021/08/05 16:07:41;;;;;;;;;;;22.70;98.20;;;;;;5053105;28;20016;-56
2021/08/05 16:10:29;;;;;;;;;;;22.90;98.30;;;;;;5053378;28;20392;-56
2021/08/05 16:13:19;;;;;;;;;;;23.10;98.10;;;;;;5050864;28;19943;-56
2021/08/05 16:16:09;;;;;;;;;;;23.00;98.10;;;;;;5045540;28;20422;-56
2021/08/05 16:18:57;;;;;;;;;;;23.10;98.30;;;;;;5051796;28;19935;-55
2021/08/05 16:21:47;;;;;;;;;;;23.20;98.00;;;;;;5052205;28;19946;-56
2021/08/05 16:24:37;;;;;;;;;;;23.10;98.00;;;;;;5056681;28;19935;-56
2021/08/05 16:27:45;;;;;;;;;;;23.00;98.00;;;;;;5055650;28;19957;-56
2021/08/05 16:30:36;;;;;;;;;;;23.10;98.40;;;;;;5058309;28;19947;-56
2021/08/05 16:33:25;;;;;;;;;;;23.10;98.00;;;;;;5053600;28;19981;-57
2021/08/05 16:36:13;;;;;;;;;;;23.00;98.30;;;;;;5065018;28;19924;-57
2021/08/05 16:39:07;;;;;;;;;;;23.10;98.60;;;;;;5062102;28;19925;-55
2021/08/05 16:41:57;;;;;;;;;;;23.30;98.00;;;;;;5057466;28;19990;-58
2021/08/05 16:44:46;;;;;;;;;;;23.40;97.70;;;;;;5059623;28;19929;-56
2021/08/05 16:47:58;;;;;;;;;;;23.30;97.00;;;;;;5065808;28;20419;-55
2021/08/05 16:50:48;;;;;;;;;;;23.20;97.10;;;;;;5057404;28;20007;-56
2021/08/05 16:53:37;;;;;;;;;;;23.00;97.30;;;;;;5059992;28;20011;-56
2021/08/05 16:56:25;;;;;;;;;;;22.70;97.70;;;;;;5067445;28;19924;-56